createdAt,value
2022-09-28T00:00:58.157Z,8.78
2022-09-28T00:01:58.248Z,8.73
2022-09-28T00:02:58.232Z,8.72
2022-09-28T00:03:58.158Z,8.69
2022-09-28T00:04:58.133Z,8.71
2022-09-28T00:05:58.081Z,8.69
2022-09-28T00:06:58.085Z,8.66
2022-09-28T00:07:58.073Z,8.66
2022-09-28T00:08:58.097Z,8.65
2022-09-28T00:09:58.100Z,8.63
2022-09-28T00:10:58.048Z,8.62
2022-09-28T00:11:58.056Z,8.62
2022-09-28T00:12:58.020Z,8.60
2022-09-28T00:13:58.007Z,8.60
2022-09-28T00:14:58.055Z,8.58
2022-09-28T00:15:58.001Z,8.58
2022-09-28T00:16:57.980Z,8.58
2022-09-28T00:17:57.969Z,8.57
2022-09-28T00:18:57.963Z,8.57
2022-09-28T00:19:58.004Z,8.55
2022-09-28T00:20:57.936Z,8.55
2022-09-28T00:21:57.930Z,8.54
2022-09-28T00:22:57.915Z,8.54
2022-09-28T00:23:57.898Z,8.53
2022-09-28T00:24:57.898Z,8.51
2022-09-28T00:25:57.888Z,8.51
2022-09-28T00:26:57.869Z,8.50
2022-09-28T00:27:57.878Z,8.48
2022-09-28T00:28:57.845Z,8.47
2022-09-28T00:29:57.828Z,8.45
2022-09-28T00:30:57.856Z,8.44
2022-09-28T00:31:57.860Z,8.44
2022-09-28T00:32:57.803Z,8.42
2022-09-28T00:33:57.790Z,8.44
2022-09-28T00:34:57.787Z,8.42
2022-09-28T00:35:57.782Z,8.40
2022-09-28T00:36:57.755Z,8.40
2022-09-28T00:37:57.779Z,8.42
2022-09-28T00:38:57.741Z,8.39
2022-09-28T00:39:57.752Z,8.37
2022-09-28T00:40:57.823Z,8.37
2022-09-28T00:41:57.703Z,8.37
2022-09-28T00:42:57.709Z,8.35
2022-09-28T00:43:57.668Z,8.36
2022-09-28T00:44:57.675Z,8.35
2022-09-28T00:45:57.701Z,8.35
2022-09-28T00:46:57.648Z,8.33
2022-09-28T00:47:57.668Z,8.33
2022-09-28T00:48:57.631Z,8.32
2022-09-28T00:49:57.612Z,8.33
2022-09-28T00:50:57.624Z,8.30
2022-09-28T00:51:57.590Z,8.30
2022-09-28T00:52:57.598Z,8.30
2022-09-28T00:53:57.569Z,8.29
2022-09-28T00:54:57.565Z,8.29
2022-09-28T00:55:57.572Z,8.29
2022-09-28T00:56:57.551Z,8.28
2022-09-28T00:57:57.569Z,8.28
2022-09-28T00:58:57.524Z,8.26
2022-09-28T00:59:57.511Z,8.26
2022-09-28T01:00:57.580Z,8.25
2022-09-28T01:01:57.502Z,8.22
2022-09-28T01:02:57.521Z,8.21
2022-09-28T01:03:57.462Z,8.21
2022-09-28T01:04:57.483Z,8.20
2022-09-28T01:05:57.471Z,8.20
2022-09-28T01:06:57.457Z,8.17
2022-09-28T01:07:57.445Z,8.17
2022-09-28T01:08:57.420Z,8.17
2022-09-28T01:09:57.413Z,8.14
2022-09-28T01:10:57.440Z,8.14
2022-09-28T01:11:57.430Z,8.11
2022-09-28T01:12:57.365Z,8.12
2022-09-28T01:13:57.348Z,8.11
2022-09-28T01:14:57.347Z,8.11
2022-09-28T01:15:57.469Z,8.11
2022-09-28T01:16:57.347Z,8.11
2022-09-28T01:17:57.300Z,8.11
2022-09-28T01:18:57.308Z,8.10
2022-09-28T01:19:57.290Z,8.10
2022-09-28T01:20:57.296Z,8.11
2022-09-28T01:21:57.293Z,8.10
2022-09-28T01:22:57.256Z,8.11
2022-09-28T01:23:57.247Z,8.12
2022-09-28T01:24:57.239Z,8.12
2022-09-28T01:25:57.232Z,8.12
2022-09-28T01:26:57.277Z,8.12
2022-09-28T01:27:58.459Z,8.14
2022-09-28T01:28:57.212Z,8.12
2022-09-28T01:29:57.182Z,8.12
2022-09-28T01:30:57.178Z,8.12
2022-09-28T01:31:57.212Z,8.12
2022-09-28T01:32:57.184Z,8.11
2022-09-28T01:33:57.131Z,8.12
2022-09-28T01:34:57.119Z,8.12
2022-09-28T01:35:57.154Z,8.14
2022-09-28T01:36:57.098Z,8.12
2022-09-28T01:37:57.082Z,8.15
2022-09-28T01:38:57.116Z,8.17
2022-09-28T01:39:57.081Z,8.17
2022-09-28T01:40:57.175Z,8.18
2022-09-28T01:41:57.051Z,8.20
2022-09-28T01:42:57.035Z,8.20
2022-09-28T01:43:57.047Z,8.21
2022-09-28T01:44:57.014Z,8.21
2022-09-28T01:45:57.074Z,8.25
2022-09-28T01:46:57.005Z,8.25
2022-09-28T01:47:56.998Z,8.26
2022-09-28T01:48:56.990Z,8.29
2022-09-28T01:49:56.954Z,8.30
2022-09-28T01:50:57.610Z,8.30
2022-09-28T01:51:56.951Z,8.30
2022-09-28T01:52:56.936Z,8.32
2022-09-28T01:53:56.935Z,8.33
2022-09-28T01:54:56.905Z,8.33
2022-09-28T01:55:56.891Z,8.36
2022-09-28T01:56:56.919Z,8.36
2022-09-28T01:57:56.879Z,8.37
2022-09-28T01:58:56.857Z,8.36
2022-09-28T01:59:56.863Z,8.39
2022-09-28T02:00:56.933Z,8.39
2022-09-28T02:01:56.907Z,8.40
2022-09-28T02:02:56.827Z,8.39
2022-09-28T02:03:56.839Z,8.37
2022-09-28T02:04:56.816Z,8.37
2022-09-28T02:05:56.836Z,8.37
2022-09-28T02:06:56.792Z,8.36
2022-09-28T02:07:56.779Z,8.33
2022-09-28T02:08:56.811Z,8.35
2022-09-28T02:09:56.748Z,8.32
2022-09-28T02:10:56.725Z,8.30
2022-09-28T02:11:56.746Z,8.29
2022-09-28T02:12:56.767Z,8.28
2022-09-28T02:13:56.699Z,8.26
2022-09-28T02:14:56.692Z,8.26
2022-09-28T02:15:56.684Z,8.22
2022-09-28T02:16:56.680Z,8.22
2022-09-28T02:17:56.664Z,8.20
2022-09-28T02:18:56.662Z,8.18
2022-09-28T02:19:56.641Z,8.18
2022-09-28T02:20:56.614Z,8.15
2022-09-28T02:21:56.640Z,8.14
2022-09-28T02:22:56.646Z,8.12
2022-09-28T02:24:26.971Z,8.10
2022-09-28T02:24:56.589Z,8.08
2022-09-28T02:25:56.572Z,8.07
2022-09-28T02:27:04.401Z,8.04
2022-09-28T02:27:57.395Z,8.04
2022-09-28T02:28:56.548Z,8.03
2022-09-28T02:29:56.544Z,8.00
2022-09-28T02:30:56.516Z,8.02
2022-09-28T02:31:56.579Z,8.00
2022-09-28T02:32:56.488Z,8.00
2022-09-28T02:33:57.064Z,7.99
2022-09-28T02:34:56.474Z,7.97
2022-09-28T02:35:56.460Z,7.97
2022-09-28T02:36:56.474Z,7.96
2022-09-28T02:37:56.430Z,7.93
2022-09-28T02:38:56.428Z,7.94
2022-09-28T02:39:58.402Z,7.93
2022-09-28T02:40:56.471Z,7.92
2022-09-28T02:41:56.409Z,7.93
2022-09-28T02:42:56.378Z,7.93
2022-09-28T02:43:56.383Z,7.92
2022-09-28T02:44:56.375Z,7.92
2022-09-28T02:45:56.423Z,7.92
2022-09-28T02:46:56.907Z,7.90
2022-09-28T02:47:56.350Z,7.92
2022-09-28T02:49:17.321Z,7.92
2022-09-28T02:49:56.306Z,7.92
2022-09-28T02:50:56.299Z,7.92
2022-09-28T02:51:56.314Z,7.92
2022-09-28T02:52:56.836Z,7.90
2022-09-28T02:53:56.265Z,7.92
2022-09-28T02:54:56.282Z,7.92
2022-09-28T02:55:56.261Z,7.90
2022-09-28T02:56:56.246Z,7.89
2022-09-28T02:57:56.788Z,7.89
2022-09-28T02:58:56.215Z,7.87
2022-09-28T02:59:56.194Z,7.89
2022-09-28T03:00:56.251Z,7.87
2022-09-28T03:01:56.222Z,7.87
2022-09-28T03:02:56.177Z,7.89
2022-09-28T03:03:56.168Z,7.89
2022-09-28T03:04:56.160Z,7.90
2022-09-28T03:05:56.140Z,7.89
2022-09-28T03:06:56.139Z,7.87
2022-09-28T03:07:56.114Z,7.87
2022-09-28T03:08:56.110Z,7.85
2022-09-28T03:09:56.103Z,7.85
2022-09-28T03:10:56.074Z,7.87
2022-09-28T03:11:56.090Z,7.85
2022-09-28T03:12:56.067Z,7.84
2022-09-28T03:13:56.061Z,7.85
2022-09-28T03:14:56.042Z,7.84
2022-09-28T03:15:56.065Z,7.84
2022-09-28T03:16:56.021Z,7.84
2022-09-28T03:17:56.015Z,7.82
2022-09-28T03:18:55.996Z,7.82
2022-09-28T03:19:56.035Z,7.84
2022-09-28T03:20:55.971Z,7.81
2022-09-28T03:21:55.964Z,7.82
2022-09-28T03:23:20.081Z,7.81
2022-09-28T03:23:55.945Z,7.81
2022-09-28T03:24:55.950Z,7.81
2022-09-28T03:25:55.910Z,7.79
2022-09-28T03:26:55.906Z,7.78
2022-09-28T03:27:55.947Z,7.75
2022-09-28T03:28:55.896Z,7.74
2022-09-28T03:29:55.879Z,7.72
2022-09-28T03:30:55.875Z,7.71
2022-09-28T03:31:55.923Z,7.69
2022-09-28T03:32:55.865Z,7.69
2022-09-28T03:33:55.838Z,7.69
2022-09-28T03:34:55.832Z,7.69
2022-09-28T03:35:55.817Z,7.67
2022-09-28T03:36:55.794Z,7.67
2022-09-28T03:37:55.875Z,7.69
2022-09-28T03:38:55.774Z,7.67
2022-09-28T03:39:55.768Z,7.67
2022-09-28T03:40:55.839Z,7.67
2022-09-28T03:41:55.738Z,7.67
2022-09-28T03:42:55.749Z,7.67
2022-09-28T03:43:55.718Z,7.66
2022-09-28T03:44:55.725Z,7.66
2022-09-28T03:45:55.834Z,7.67
2022-09-28T03:46:55.689Z,7.67
2022-09-28T03:47:55.691Z,7.66
2022-09-28T03:48:55.692Z,7.67
2022-09-28T03:49:55.649Z,7.66
2022-09-28T03:50:55.650Z,7.66
2022-09-28T03:51:56.907Z,7.66
2022-09-28T03:52:55.661Z,7.63
2022-09-28T03:53:55.606Z,7.63
2022-09-28T03:54:55.613Z,7.63
2022-09-28T03:55:55.593Z,7.63
2022-09-28T03:56:56.905Z,7.63
2022-09-28T03:57:55.585Z,7.63
2022-09-28T03:58:56.123Z,7.66
2022-09-28T03:59:55.550Z,7.66
2022-09-28T04:00:55.590Z,7.67
2022-09-28T04:01:55.609Z,7.71
2022-09-28T04:02:55.521Z,7.72
2022-09-28T04:03:55.513Z,7.72
2022-09-28T04:04:55.488Z,7.75
2022-09-28T04:05:55.478Z,7.75
2022-09-28T04:06:56.779Z,7.78
2022-09-28T04:07:55.496Z,7.78
2022-09-28T04:08:55.442Z,7.79
2022-09-28T04:09:55.959Z,7.81
2022-09-28T04:10:55.431Z,7.79
2022-09-28T04:12:03.858Z,7.82
2022-09-28T04:12:55.481Z,7.84
2022-09-28T04:13:55.425Z,7.84
2022-09-28T04:14:55.398Z,7.84
2022-09-28T04:15:56.013Z,7.87
2022-09-28T04:16:55.359Z,7.87
2022-09-28T04:17:55.363Z,7.87
2022-09-28T04:18:55.352Z,7.90
2022-09-28T04:19:55.333Z,7.92
2022-09-28T04:20:55.345Z,7.92
2022-09-28T04:21:55.304Z,7.92
2022-09-28T04:22:55.320Z,7.92
2022-09-28T04:23:55.281Z,7.89
2022-09-28T04:24:55.267Z,7.92
2022-09-28T04:25:56.493Z,7.90
2022-09-28T04:26:55.260Z,7.93
2022-09-28T04:27:55.258Z,7.92
2022-09-28T04:28:55.268Z,7.94
2022-09-28T04:29:55.211Z,7.96
2022-09-28T04:30:55.218Z,7.97
2022-09-28T04:31:55.890Z,7.97
2022-09-28T04:32:55.195Z,7.99
2022-09-28T04:33:55.172Z,8.00
2022-09-28T04:34:55.186Z,7.99
2022-09-28T04:35:55.153Z,7.99
2022-09-28T04:36:55.139Z,7.99
2022-09-28T04:37:55.174Z,7.99
2022-09-28T04:38:55.117Z,7.97
2022-09-28T04:39:55.097Z,7.96
2022-09-28T04:40:55.191Z,7.94
2022-09-28T04:41:55.080Z,7.94
2022-09-28T04:42:55.977Z,7.94
2022-09-28T04:43:55.072Z,7.94
2022-09-28T04:44:55.914Z,7.94
2022-09-28T04:45:55.126Z,7.93
2022-09-28T04:46:55.029Z,7.93
2022-09-28T04:47:55.915Z,7.93
2022-09-28T04:48:55.011Z,7.94
2022-09-28T04:49:55.005Z,7.96
2022-09-28T04:50:55.033Z,7.96
2022-09-28T04:51:54.978Z,7.97
2022-09-28T04:52:54.985Z,7.97
2022-09-28T04:53:54.963Z,7.99
2022-09-28T04:54:54.944Z,7.97
2022-09-28T04:55:54.939Z,7.99
2022-09-28T04:56:54.950Z,7.99
2022-09-28T04:57:54.916Z,7.97
2022-09-28T04:58:54.896Z,7.97
2022-09-28T04:59:54.885Z,7.96
2022-09-28T05:00:54.965Z,7.94
2022-09-28T05:01:54.959Z,7.96
2022-09-28T05:02:54.871Z,7.96
2022-09-28T05:03:54.852Z,7.94
2022-09-28T05:04:54.852Z,7.93
2022-09-28T05:05:54.823Z,7.93
2022-09-28T05:06:54.817Z,7.92
2022-09-28T05:07:54.868Z,7.93
2022-09-28T05:08:54.788Z,7.93
2022-09-28T05:09:54.782Z,7.93
2022-09-28T05:10:59.437Z,7.90
2022-09-28T05:11:54.757Z,7.90
2022-09-28T05:12:54.765Z,7.89
2022-09-28T05:13:54.763Z,7.89
2022-09-28T05:14:54.732Z,7.90
2022-09-28T05:15:58.081Z,7.93
2022-09-28T05:16:54.742Z,7.92
2022-09-28T05:17:54.717Z,7.92
2022-09-28T05:18:54.680Z,7.93
2022-09-28T05:19:54.670Z,7.93
2022-09-28T05:20:54.660Z,7.93
2022-09-28T05:22:01.203Z,7.92
2022-09-28T05:22:54.650Z,7.93
2022-09-28T05:23:54.627Z,7.93
2022-09-28T05:24:54.619Z,7.94
2022-09-28T05:25:54.636Z,7.94
2022-09-28T05:26:54.608Z,7.96
2022-09-28T05:27:54.603Z,7.96
2022-09-28T05:28:54.574Z,7.97
2022-09-28T05:29:54.565Z,7.97
2022-09-28T05:30:54.561Z,7.97
2022-09-28T05:31:54.589Z,7.97
2022-09-28T05:32:54.550Z,7.96
2022-09-28T05:33:54.508Z,7.97
2022-09-28T05:34:54.518Z,7.97
2022-09-28T05:35:57.850Z,7.97
2022-09-28T05:36:54.481Z,7.94
2022-09-28T05:37:54.493Z,7.96
2022-09-28T05:38:54.465Z,7.94
2022-09-28T05:39:54.453Z,7.96
2022-09-28T05:40:54.489Z,7.99
2022-09-28T05:41:54.435Z,8.00
2022-09-28T05:42:54.440Z,8.00
2022-09-28T05:43:54.410Z,8.00
2022-09-28T05:44:54.404Z,8.02
2022-09-28T05:45:55.835Z,8.03
2022-09-28T05:46:54.382Z,8.03
2022-09-28T05:47:54.384Z,8.03
2022-09-28T05:48:54.361Z,8.04
2022-09-28T05:49:54.361Z,8.04
2022-09-28T05:50:54.329Z,7.97
2022-09-28T05:51:54.320Z,7.93
2022-09-28T05:52:54.328Z,7.90
2022-09-28T05:53:54.294Z,7.90
2022-09-28T05:54:54.295Z,7.90
2022-09-28T05:55:54.273Z,7.94
2022-09-28T05:56:54.272Z,7.93
2022-09-28T05:57:54.283Z,7.82
2022-09-28T05:58:54.252Z,7.78
2022-09-28T05:59:54.237Z,7.67
2022-09-28T06:00:54.239Z,7.62
2022-09-28T06:01:54.214Z,7.58
2022-09-28T06:02:54.229Z,7.53
2022-09-28T06:03:54.187Z,7.52
2022-09-28T06:04:54.184Z,7.55
2022-09-28T06:05:54.175Z,7.58
2022-09-28T06:06:54.179Z,7.63
2022-09-28T06:07:54.275Z,7.67
2022-09-28T06:08:54.144Z,7.74
2022-09-28T06:09:54.123Z,7.78
2022-09-28T06:10:54.119Z,7.82
2022-09-28T06:11:54.147Z,7.84
2022-09-28T06:12:54.118Z,7.84
2022-09-28T06:13:54.085Z,7.89
2022-09-28T06:14:54.060Z,7.85
2022-09-28T06:15:54.063Z,7.84
2022-09-28T06:16:54.114Z,7.82
2022-09-28T06:17:54.053Z,7.75
2022-09-28T06:18:54.028Z,7.74
2022-09-28T06:19:54.007Z,7.75
2022-09-28T06:20:54.015Z,7.75
2022-09-28T06:21:53.990Z,7.67
2022-09-28T06:22:53.999Z,7.63
2022-09-28T06:23:53.977Z,7.62
2022-09-28T06:24:53.962Z,7.66
2022-09-28T06:25:53.958Z,7.69
2022-09-28T06:26:53.939Z,7.67
2022-09-28T06:27:53.951Z,7.69
2022-09-28T06:28:53.921Z,7.71
2022-09-28T06:29:53.906Z,7.60
2022-09-28T06:30:53.975Z,7.55
2022-09-28T06:31:53.881Z,7.49
2022-09-28T06:32:53.896Z,7.45
2022-09-28T06:33:53.869Z,7.45
2022-09-28T06:34:56.360Z,7.50
2022-09-28T06:35:53.846Z,7.53
2022-09-28T06:36:53.835Z,7.52
2022-09-28T06:37:53.843Z,7.50
2022-09-28T06:38:53.809Z,7.53
2022-09-28T06:39:53.798Z,7.59
2022-09-28T06:40:53.836Z,7.63
2022-09-28T06:41:53.785Z,7.74
2022-09-28T06:42:53.772Z,7.78
2022-09-28T06:43:53.774Z,7.81
2022-09-28T06:44:53.738Z,7.87
2022-09-28T06:45:53.809Z,7.93
2022-09-28T06:46:53.732Z,7.89
2022-09-28T06:47:53.732Z,7.85
2022-09-28T06:48:53.723Z,7.87
2022-09-28T06:49:53.707Z,7.90
2022-09-28T06:50:53.694Z,7.84
2022-09-28T06:51:53.670Z,7.69
2022-09-28T06:52:53.649Z,7.58
2022-09-28T06:53:53.657Z,7.52
2022-09-28T06:54:53.645Z,7.45
2022-09-28T06:55:53.624Z,7.42
2022-09-28T06:56:53.625Z,7.45
2022-09-28T06:57:53.605Z,7.47
2022-09-28T06:58:53.611Z,7.53
2022-09-28T06:59:53.573Z,7.59
2022-09-28T07:00:53.606Z,7.67
2022-09-28T07:01:53.597Z,7.74
2022-09-28T07:02:53.579Z,7.84
2022-09-28T07:03:55.630Z,7.92
2022-09-28T07:04:53.531Z,7.97
2022-09-28T07:05:53.518Z,8.03
2022-09-28T07:06:53.511Z,8.10
2022-09-28T07:07:53.501Z,8.14
2022-09-28T07:09:04.248Z,8.20
2022-09-28T07:09:55.356Z,8.28
2022-09-28T07:10:53.526Z,8.32
2022-09-28T07:11:53.477Z,8.36
2022-09-28T07:12:53.444Z,8.39
2022-09-28T07:13:53.462Z,8.42
2022-09-28T07:14:53.752Z,8.47
2022-09-28T07:15:53.406Z,8.51
2022-09-28T07:17:11.574Z,8.54
2022-09-28T07:18:14.690Z,8.58
2022-09-28T07:18:53.383Z,8.63
2022-09-28T07:19:53.365Z,8.68
2022-09-28T07:20:54.689Z,8.71
2022-09-28T07:22:02.627Z,8.73
2022-09-28T07:22:53.360Z,8.75
2022-09-28T07:24:00.983Z,8.76
2022-09-28T07:25:07.969Z,8.79
2022-09-28T07:25:53.294Z,8.79
2022-09-28T07:27:01.045Z,8.79
2022-09-28T07:27:59.958Z,8.78
2022-09-28T07:29:00.970Z,8.79
2022-09-28T07:29:53.775Z,8.83
2022-09-28T07:31:08.560Z,8.86
2022-09-28T07:31:53.229Z,8.88
2022-09-28T07:33:03.550Z,8.91
2022-09-28T07:33:53.219Z,8.93
2022-09-28T07:34:58.066Z,8.96
2022-09-28T07:35:53.193Z,8.99
2022-09-28T07:36:53.668Z,9.02
2022-09-28T07:37:53.165Z,9.02
2022-09-28T07:39:03.976Z,9.04
2022-09-28T07:39:53.146Z,9.02
2022-09-28T07:41:08.561Z,9.05
2022-09-28T07:41:56.683Z,9.09
2022-09-28T07:43:01.549Z,9.09
2022-09-28T07:43:53.127Z,9.12
2022-09-28T07:44:53.088Z,9.15
2022-09-28T07:45:53.659Z,9.16
2022-09-28T07:46:53.068Z,9.18
2022-09-28T07:48:00.196Z,9.20
2022-09-28T07:48:53.056Z,9.24
2022-09-28T07:50:07.973Z,9.25
2022-09-28T07:50:53.029Z,9.25
2022-09-28T07:52:03.834Z,9.27
2022-09-28T07:52:53.008Z,9.31
2022-09-28T07:54:03.053Z,9.34
2022-09-28T07:54:52.977Z,9.34
2022-09-28T07:55:52.975Z,9.39
2022-09-28T07:56:52.968Z,9.40
2022-09-28T07:57:52.952Z,9.38
2022-09-28T07:59:00.979Z,9.35
2022-09-28T07:59:52.925Z,9.35
2022-09-28T08:01:08.042Z,9.39
2022-09-28T08:01:52.987Z,9.43
2022-09-28T08:03:01.545Z,9.45
2022-09-28T08:03:57.970Z,9.45
2022-09-28T08:04:59.898Z,9.49
2022-09-28T08:05:52.876Z,9.52
2022-09-28T08:07:07.971Z,9.38
2022-09-28T08:07:52.841Z,9.31
2022-09-28T08:09:01.559Z,9.30
2022-09-28T08:09:52.823Z,9.32
2022-09-28T08:10:52.891Z,9.35
2022-09-28T08:11:52.803Z,9.40
2022-09-28T08:12:52.789Z,9.45
2022-09-28T08:13:58.485Z,9.49
2022-09-28T08:14:52.763Z,9.49
2022-09-28T08:16:07.464Z,9.48
2022-09-28T08:16:53.347Z,9.34
2022-09-28T08:18:07.959Z,9.32
2022-09-28T08:18:52.737Z,9.34
2022-09-28T08:20:02.070Z,9.38
2022-09-28T08:20:59.479Z,9.40
2022-09-28T08:21:59.724Z,9.43
2022-09-28T08:22:52.682Z,9.46
2022-09-28T08:24:03.988Z,9.49
2022-09-28T08:24:52.657Z,9.57
2022-09-28T08:37:54.717Z,10.07
2022-09-28T08:38:52.004Z,10.14
2022-09-28T08:39:51.974Z,10.15
2022-09-28T08:40:52.001Z,10.19
2022-09-28T08:41:51.950Z,10.26
2022-09-28T08:42:51.951Z,10.36
2022-09-28T08:43:51.944Z,10.42
2022-09-28T08:44:51.944Z,10.52
2022-09-28T08:45:51.961Z,10.59
2022-09-28T08:46:51.901Z,10.70
2022-09-28T08:47:51.899Z,10.76
2022-09-28T08:49:13.035Z,10.84
2022-09-28T08:49:51.914Z,10.92
2022-09-28T08:50:51.857Z,10.96
2022-09-28T08:51:51.841Z,10.96
2022-09-28T08:52:51.833Z,10.84
2022-09-28T08:53:51.841Z,10.80
2022-09-28T08:54:51.835Z,10.56
2022-09-28T08:55:51.806Z,10.43
2022-09-28T08:56:51.814Z,10.39
2022-09-28T08:57:51.790Z,10.36
2022-09-28T08:58:51.781Z,10.37
2022-09-28T08:59:51.775Z,10.39
2022-09-28T09:00:51.908Z,10.37
2022-09-28T09:01:53.635Z,10.36
2022-09-28T09:02:51.773Z,10.34
2022-09-28T09:03:51.972Z,10.37
2022-09-28T09:04:51.712Z,10.46
2022-09-28T09:05:51.686Z,10.55
2022-09-28T09:06:51.678Z,10.56
2022-09-28T09:07:51.671Z,10.58
2022-09-28T09:08:51.687Z,10.59
2022-09-28T09:09:51.655Z,10.60
2022-09-28T09:10:51.641Z,10.63
2022-09-28T09:11:51.646Z,10.70
2022-09-28T09:13:51.632Z,10.73
2022-09-28T09:14:51.606Z,10.77
2022-09-28T09:15:51.599Z,10.84
2022-09-28T09:16:51.649Z,10.92
2022-09-28T09:17:51.581Z,10.99
2022-09-28T09:18:51.665Z,11.09
2022-09-28T09:19:51.567Z,11.17
2022-09-28T09:20:51.558Z,11.28
2022-09-28T09:21:51.533Z,11.38
2022-09-28T09:22:51.520Z,11.39
2022-09-28T09:23:51.522Z,11.43
2022-09-28T09:24:51.523Z,11.39
2022-09-28T09:25:51.479Z,11.38
2022-09-28T09:26:51.471Z,11.39
2022-09-28T09:27:51.450Z,11.39
2022-09-28T09:28:51.469Z,11.43
2022-09-28T09:29:51.438Z,11.38
2022-09-28T09:30:51.465Z,11.35
2022-09-28T09:31:51.415Z,11.29
2022-09-28T09:32:51.403Z,11.21
2022-09-28T09:33:51.411Z,11.14
2022-09-28T09:34:51.378Z,11.06
2022-09-28T09:35:51.367Z,11.02
2022-09-28T09:36:51.351Z,10.99
2022-09-28T09:37:55.191Z,11.01
2022-09-28T09:38:51.353Z,11.03
2022-09-28T09:39:51.320Z,10.99
2022-09-28T09:40:51.399Z,11.01
2022-09-28T09:41:51.308Z,11.07
2022-09-28T09:42:51.285Z,11.13
2022-09-28T09:43:51.287Z,11.16
2022-09-28T09:44:51.264Z,11.13
2022-09-28T09:45:51.375Z,11.17
2022-09-28T09:46:51.240Z,11.24
2022-09-28T09:47:51.229Z,11.28
2022-09-28T09:48:51.231Z,11.34
2022-09-28T09:49:51.209Z,11.38
2022-09-28T09:50:51.194Z,11.41
2022-09-28T09:51:54.147Z,11.38
2022-09-28T09:52:51.184Z,11.36
2022-09-28T09:53:51.189Z,11.38
2022-09-28T09:54:51.176Z,11.36
2022-09-28T09:55:51.146Z,11.28
2022-09-28T09:56:51.130Z,11.20
2022-09-28T09:57:51.147Z,11.19
2022-09-28T09:58:51.118Z,11.07
2022-09-28T09:59:51.107Z,10.99
2022-09-28T10:00:51.118Z,10.98
2022-09-28T10:01:51.084Z,11.02
2022-09-28T10:02:51.159Z,11.14
2022-09-28T10:03:51.072Z,11.21
2022-09-28T10:04:51.039Z,11.27
2022-09-28T10:05:51.032Z,11.27
2022-09-28T10:06:51.026Z,11.28
2022-09-28T10:07:51.012Z,11.32
2022-09-28T10:08:50.999Z,11.43
2022-09-28T10:09:50.996Z,11.47
2022-09-28T10:10:50.973Z,11.56
2022-09-28T10:11:50.965Z,11.70
2022-09-28T10:12:50.959Z,11.74
2022-09-28T10:13:50.955Z,11.64
2022-09-28T10:14:50.916Z,11.64
2022-09-28T10:15:50.913Z,11.68
2022-09-28T10:16:51.074Z,11.80
2022-09-28T10:17:50.895Z,11.90
2022-09-28T10:18:50.900Z,12.02
2022-09-28T10:19:50.877Z,12.13
2022-09-28T10:20:50.857Z,12.23
2022-09-28T10:21:50.855Z,12.30
2022-09-28T10:22:50.837Z,12.31
2022-09-28T10:23:50.847Z,12.27
2022-09-28T10:24:50.820Z,12.27
2022-09-28T10:25:50.811Z,12.21
2022-09-28T10:26:50.823Z,12.20
2022-09-28T10:27:50.794Z,12.19
2022-09-28T10:28:50.798Z,12.24
2022-09-28T10:29:50.769Z,12.27
2022-09-28T10:30:50.856Z,12.29
2022-09-28T10:31:50.751Z,12.27
2022-09-28T10:32:50.720Z,12.23
2022-09-28T10:33:50.742Z,12.16
2022-09-28T10:34:51.188Z,12.01
2022-09-28T10:35:50.708Z,11.83
2022-09-28T10:36:50.686Z,11.67
2022-09-28T10:37:50.690Z,11.52
2022-09-28T10:38:50.684Z,11.54
2022-09-28T10:39:50.654Z,11.65
2022-09-28T10:40:50.758Z,11.78
2022-09-28T10:41:50.634Z,11.90
2022-09-28T10:42:50.639Z,11.96
2022-09-28T10:43:52.067Z,12.04
2022-09-28T10:44:50.607Z,12.11
2022-09-28T10:45:50.658Z,12.20
2022-09-28T10:46:50.579Z,12.21
2022-09-28T10:47:50.572Z,12.31
2022-09-28T10:48:50.586Z,12.30
2022-09-28T10:49:50.562Z,12.38
2022-09-28T10:50:50.540Z,12.51
2022-09-28T10:51:50.524Z,12.59
2022-09-28T10:52:50.517Z,12.60
2022-09-28T10:53:50.528Z,12.67
2022-09-28T10:54:50.488Z,12.77
2022-09-28T10:55:50.486Z,12.82
2022-09-28T10:56:50.478Z,12.88
2022-09-28T10:57:50.464Z,12.95
2022-09-28T10:58:50.442Z,12.95
2022-09-28T10:59:50.457Z,12.97
2022-09-28T11:00:50.419Z,12.96
2022-09-28T11:01:50.509Z,12.96
2022-09-28T11:02:50.420Z,12.96
2022-09-28T11:03:50.408Z,12.92
2022-09-28T11:04:50.396Z,12.71
2022-09-28T11:05:50.367Z,12.45
2022-09-28T11:06:50.468Z,12.41
2022-09-28T11:07:50.360Z,12.33
2022-09-28T11:08:50.339Z,12.33
2022-09-28T11:09:50.349Z,12.38
2022-09-28T11:10:50.311Z,12.44
2022-09-28T11:11:50.332Z,12.51
2022-09-28T11:12:50.293Z,12.51
2022-09-28T11:13:50.285Z,12.51
2022-09-28T11:14:50.286Z,12.57
2022-09-28T11:15:50.363Z,12.64
2022-09-28T11:16:50.289Z,12.74
2022-09-28T11:17:50.248Z,12.79
2022-09-28T11:18:50.240Z,12.84
2022-09-28T11:19:50.243Z,12.70
2022-09-28T11:20:50.206Z,12.54
2022-09-28T11:22:53.416Z,12.52
2022-09-28T11:23:52.083Z,12.56
2022-09-28T11:24:52.079Z,12.63
2022-09-28T11:25:52.051Z,12.64
2022-09-28T11:26:52.052Z,12.69
2022-09-28T11:27:52.028Z,12.77
2022-09-28T11:28:52.059Z,12.89
2022-09-28T11:29:52.038Z,13.03
2022-09-28T11:30:52.096Z,13.14
2022-09-28T11:31:51.985Z,13.22
2022-09-28T11:32:51.980Z,13.25
2022-09-28T11:33:51.960Z,13.11
2022-09-28T11:34:59.567Z,13.17
2022-09-28T11:35:51.957Z,13.22
2022-09-28T11:36:51.927Z,13.22
2022-09-28T11:37:51.914Z,13.17
2022-09-28T11:38:51.922Z,13.07
2022-09-28T11:39:51.906Z,12.92
2022-09-28T11:40:51.967Z,12.85
2022-09-28T11:41:51.869Z,12.66
2022-09-28T11:42:51.866Z,12.63
2022-09-28T11:43:51.895Z,12.62
2022-09-28T11:44:51.863Z,12.67
2022-09-28T11:45:51.910Z,12.67
2022-09-28T11:46:51.825Z,12.71
2022-09-28T11:47:51.825Z,12.78
2022-09-28T11:48:51.799Z,12.87
2022-09-28T11:49:51.804Z,12.92
2022-09-28T11:50:51.800Z,12.92
2022-09-28T11:51:51.774Z,12.89
2022-09-28T11:52:51.809Z,12.81
2022-09-28T11:53:51.778Z,12.81
2022-09-28T11:54:51.745Z,12.79
2022-09-28T11:55:51.721Z,12.78
2022-09-28T11:56:51.715Z,12.78
2022-09-28T11:57:51.708Z,12.77
2022-09-28T11:58:51.683Z,12.78
2022-09-28T11:59:51.699Z,12.82
2022-09-28T12:00:51.674Z,12.84
2022-09-28T12:01:51.654Z,12.85
2022-09-28T12:02:51.791Z,12.81
2022-09-28T12:03:51.698Z,12.81
2022-09-28T12:04:51.637Z,12.81
2022-09-28T12:05:51.602Z,12.78
2022-09-28T12:06:51.614Z,12.77
2022-09-28T12:07:51.583Z,12.74
2022-09-28T12:08:51.585Z,12.71
2022-09-28T12:09:51.592Z,12.74
2022-09-28T12:10:51.563Z,12.77
2022-09-28T12:11:51.537Z,12.79
2022-09-28T12:12:51.540Z,12.87
2022-09-28T12:13:51.510Z,12.88
2022-09-28T12:14:51.523Z,12.92
2022-09-28T12:17:06.035Z,12.96
2022-09-28T12:17:51.588Z,13.00
2022-09-28T12:18:51.521Z,13.09
2022-09-28T12:19:51.469Z,13.07
2022-09-28T12:20:51.447Z,13.03
2022-09-28T12:21:51.419Z,12.92
2022-09-28T12:22:51.428Z,12.87
2022-09-28T12:23:51.424Z,12.92
2022-09-28T12:24:51.532Z,12.96
2022-09-28T12:25:51.381Z,13.03
2022-09-28T12:26:51.434Z,13.09
2022-09-28T12:27:51.350Z,13.07
2022-09-28T12:28:51.398Z,13.11
2022-09-28T12:29:51.361Z,13.12
2022-09-28T12:30:51.388Z,13.07
2022-09-28T12:31:51.339Z,13.18
2022-09-28T12:32:51.324Z,13.32
2022-09-28T12:33:51.291Z,13.52
2022-09-28T12:34:51.310Z,13.70
2022-09-28T12:35:51.268Z,13.87
2022-09-28T12:36:51.264Z,13.99
2022-09-28T12:37:54.567Z,14.13
2022-09-28T12:39:14.863Z,14.19
2022-09-28T12:39:57.887Z,14.27
2022-09-28T12:40:51.293Z,14.12
2022-09-28T12:41:51.192Z,14.07
2022-09-28T12:42:51.205Z,14.04
2022-09-28T12:43:51.174Z,14.09
2022-09-28T12:44:53.762Z,14.16
2022-09-28T12:46:10.366Z,14.27
2022-09-28T12:46:51.236Z,14.39
2022-09-28T12:47:51.144Z,14.53
2022-09-28T12:49:24.123Z,14.62
2022-09-28T12:50:57.238Z,14.64
2022-09-28T12:51:51.133Z,14.57
2022-09-28T12:52:51.102Z,14.52
2022-09-28T12:53:51.066Z,14.38
2022-09-28T12:54:51.083Z,14.29
2022-09-28T12:55:51.071Z,14.27
2022-09-28T12:56:51.050Z,14.32
2022-09-28T12:57:51.029Z,14.47
2022-09-28T12:58:51.026Z,14.54
2022-09-28T12:59:51.027Z,14.68
2022-09-28T13:00:51.002Z,14.83
2022-09-28T13:01:51.001Z,14.91
2022-09-28T13:02:51.059Z,14.94
2022-09-28T13:03:50.959Z,15.01
2022-09-28T13:04:50.965Z,15.06
2022-09-28T13:05:51.052Z,15.06
2022-09-28T13:06:50.929Z,14.75
2022-09-28T13:07:50.926Z,14.53
2022-09-28T13:08:50.927Z,14.47
2022-09-28T13:09:50.912Z,14.35
2022-09-28T13:10:51.137Z,14.29
2022-09-28T13:11:50.865Z,14.28
2022-09-28T13:12:50.865Z,14.24
2022-09-28T13:13:50.851Z,14.24
2022-09-28T13:14:50.862Z,14.21
2022-09-28T13:15:50.932Z,14.09
2022-09-28T13:16:50.816Z,14.09
2022-09-28T13:17:50.806Z,14.07
2022-09-28T13:18:50.805Z,14.19
2022-09-28T13:19:50.810Z,14.37
2022-09-28T13:20:50.771Z,14.43
2022-09-28T13:21:50.765Z,14.43
2022-09-28T13:22:50.780Z,14.28
2022-09-28T13:23:50.736Z,14.34
2022-09-28T13:24:50.753Z,14.29